Time;durP1;ratioP1;P1;durP2;ratioP2;P2;SDS_P1;SDS_P2;PMS_P1;PMS_P2;Temp;Humidity;BMP_temperature;BMP_pressure;BME280_temperature;BME280_humidity;BME280_pressure;Samples;Min_cycle;Max_cycle;Signal;HPM_P1;HPM_P2
2022/09/11 00:01:57;;;;;;;0.10;0.10;;;;;;;-145.16;100.00;77830.98;645192;217;32654;-75
2022/09/11 00:07:41;;;;;;;0.13;0.13;;;;;;;-145.16;100.00;77806.81;645043;217;43077;-75
2022/09/11 00:13:23;;;;;;;0.00;0.00;;;;;;;-145.16;100.00;77812.86;653692;218;32312;-75
2022/09/11 00:19:04;;;;;;;0.20;0.20;;;;;;;-145.16;100.00;77820.91;645281;217;33229;-75
2022/09/11 00:24:45;;;;;;;0.10;0.10;;;;;;;-145.16;100.00;77816.89;645200;217;32397;-75
2022/09/11 00:30:27;;;;;;;0.03;0.03;;;;;;;-145.16;100.00;77830.98;645184;217;32639;-74
2022/09/11 00:36:08;;;;;;;0.00;0.00;;;;;;;-145.16;100.00;77817.89;653731;217;36314;-75
2022/09/11 00:41:52;;;;;;;0.10;0.10;;;;;;;-145.16;100.00;77801.78;645084;218;35299;-74
2022/09/11 00:48:11;;;;;;;0.10;0.10;;;;;;;-145.16;100.00;77831.98;645179;217;34570;-75
2022/09/11 00:53:53;;;;;;;0.35;0.35;;;;;;;-145.16;100.00;77830.98;645243;216;35342;-74
2022/09/11 00:59:35;;;;;;;0.10;0.10;;;;;;;-145.16;100.00;77805.81;645031;217;53698;-74
2022/09/11 01:05:17;;;;;;;0.10;0.10;;;;;;;-145.16;100.00;77780.64;645153;216;43422;-74
2022/09/11 01:10:59;;;;;;;0.10;0.10;;;;;;;-145.16;100.00;77808.83;645052;217;32376;-73
2022/09/11 01:16:41;;;;;;;0.07;0.07;;;;;;;-145.16;100.00;77801.78;645163;218;32368;-74
2022/09/11 01:22:26;;;;;;;0.10;0.10;;;;;;;-145.16;100.00;77806.81;645170;216;32356;-74
2022/09/11 01:28:08;;;;;;;0.10;0.10;;;;;;;-145.16;100.00;77802.79;645310;217;33496;-74
2022/09/11 01:33:50;;;;;;;0.17;0.17;;;;;;;-145.16;100.00;77800.77;645181;218;33297;-74
2022/09/11 01:39:31;;;;;;;0.10;0.10;;;;;;;-145.16;100.00;77772.59;645175;217;32356;-74
2022/09/11 01:45:15;;;;;;;0.10;0.10;;;;;;;-145.16;100.00;77798.77;645247;217;34304;-74
2022/09/11 01:50:54;;;;;;;0.10;0.10;;;;;;;-145.16;100.00;77798.77;645160;217;32367;-74
2022/09/11 01:56:35;;;;;;;0.10;0.10;;;;;;;-145.16;100.00;77806.81;645156;217;33384;-75
2022/09/11 02:02:18;;;;;;;0.20;0.20;;;;;;;-145.16;100.00;77745.40;645058;218;32351;-75
2022/09/11 02:08:00;;;;;;;0.10;0.10;;;;;;;-145.16;100.00;77734.33;645180;217;32378;-74
2022/09/11 02:13:41;;;;;;;0.10;0.10;;;;;;;-145.16;100.00;77723.25;653701;217;43160;-75
2022/09/11 02:19:25;;;;;;;0.20;0.20;;;;;;;-145.16;100.00;77723.25;645036;218;33316;-75
2022/09/11 02:25:06;;;;;;;0.20;0.20;;;;;;;-145.16;100.00;77784.66;645222;216;34317;-74
2022/09/11 02:30:48;;;;;;;0.17;0.17;;;;;;;-145.16;100.00;77820.91;645177;217;32382;-74
2022/09/11 02:36:43;;;;;;;0.10;0.10;;;;;;;-145.16;100.00;77852.13;645199;217;32336;-74
2022/09/11 02:42:29;;;;;;;0.10;0.10;;;;;;;-145.16;100.00;77814.88;645066;217;34300;-74
2022/09/11 02:48:11;;;;;;;0.10;0.10;;;;;;;-145.16;100.00;77809.84;645158;218;33344;-74
2022/09/11 02:53:53;;;;;;;0.10;0.10;;;;;;;-145.16;100.00;77861.19;645245;217;34605;-74
2022/09/11 02:59:35;;;;;;;0.07;0.07;;;;;;;-145.16;100.00;77847.09;645190;217;32318;-74
2022/09/11 03:05:17;;;;;;;0.08;0.08;;;;;;;-145.16;100.00;77821.92;653691;217;32661;-73
2022/09/11 03:10:58;;;;;;;0.10;0.10;;;;;;;-145.16;100.00;77841.05;653694;217;32360;-73
2022/09/11 03:16:39;;;;;;;0.10;0.10;;;;;;;-145.16;100.00;77862.20;645191;217;32360;-73
2022/09/11 03:22:20;;;;;;;0.10;0.10;;;;;;;-145.16;100.00;77868.23;645169;217;34307;-74
2022/09/11 03:28:03;;;;;;;0.10;0.10;;;;;;;-145.16;100.00;77905.48;645062;217;32371;-73
2022/09/11 03:33:45;;;;;;;0.10;0.10;;;;;;;-145.16;100.00;77846.09;653691;217;32368;-73
2022/09/11 03:39:26;;;;;;;0.00;0.00;;;;;;;-145.16;100.00;77872.27;645234;217;35338;-74
2022/09/11 03:45:08;;;;;;;0.03;0.03;;;;;;;-145.16;100.00;77860.18;645185;217;32643;-74
2022/09/11 03:50:49;;;;;;;0.10;0.10;;;;;;;-145.16;100.00;77847.09;653682;217;34310;-73
2022/09/11 03:56:33;;;;;;;0.10;0.10;;;;;;;-145.16;100.00;77893.41;645014;217;32404;-74
2022/09/11 04:02:14;;;;;;;0.00;0.00;;;;;;;-145.16;100.00;77903.48;645242;217;35374;-73
2022/09/11 04:07:58;;;;;;;0.10;0.10;;;;;;;-145.16;100.00;77908.51;645093;217;34326;-74
2022/09/11 04:13:40;;;;;;;0.00;0.00;;;;;;;-145.16;100.00;77904.48;645036;217;34361;-74
2022/09/11 04:19:22;;;;;;;0.10;0.10;;;;;;;-145.16;100.00;77921.59;645235;217;35286;-74
2022/09/11 04:25:03;;;;;;;0.10;0.10;;;;;;;-145.16;100.00;77906.50;645161;217;32374;-74
2022/09/11 04:30:46;;;;;;;0.10;0.10;;;;;;;-145.16;100.00;77929.66;645019;217;32639;-74
2022/09/11 04:36:28;;;;;;;0.00;0.00;;;;;;;-145.16;100.00;77929.66;645187;217;34396;-73
2022/09/11 04:42:11;;;;;;;0.10;0.10;;;;;;;-145.16;100.00;77950.80;632214;221;54160;-73
2022/09/11 04:47:52;;;;;;;0.10;0.10;;;;;;;-145.16;100.00;77939.72;653673;217;34322;-73
2022/09/11 04:53:36;;;;;;;0.10;0.10;;;;;;;-145.16;100.00;77963.89;653736;218;35335;-73
2022/09/11 04:59:16;;;;;;;0.10;0.10;;;;;;;-145.16;100.00;77988.05;653689;217;32388;-73
2022/09/11 05:04:58;;;;;;;0.00;0.00;;;;;;;-145.16;100.00;78008.19;645179;218;34378;-73
2022/09/11 05:10:41;;;;;;;0.10;0.10;;;;;;;-145.16;100.00;78029.34;645174;217;34342;-73
2022/09/11 05:16:21;;;;;;;0.10;0.10;;;;;;;-145.16;100.00;78023.30;653668;217;32340;-73
2022/09/11 05:22:03;;;;;;;0.10;0.10;;;;;;;-145.16;100.00;78046.45;653704;217;32322;-73
2022/09/11 05:27:44;;;;;;;0.10;0.10;;;;;;;-145.16;100.00;78026.31;645179;218;32639;-73
2022/09/11 05:33:25;;;;;;;0.30;0.30;;;;;;;-145.16;100.00;77958.86;645183;217;34310;-73
2022/09/11 05:39:08;;;;;;;0.10;0.10;;;;;;;-145.16;100.00;77902.47;645149;218;32361;-73
2022/09/11 05:44:48;;;;;;;0.10;0.10;;;;;;;-145.16;100.00;77835.01;653664;217;32417;-73
2022/09/11 05:50:31;;;;;;;0.20;0.20;;;;;;;-145.16;100.00;77699.09;653750;217;34303;-74
2022/09/11 05:56:11;;;;;;;0.10;0.10;;;;;;;-145.16;100.00;77615.52;645158;217;34359;-74
2022/09/11 06:01:53;;;;;;;0.10;0.10;;;;;;;-145.16;100.00;77527.94;653664;217;43102;-74
2022/09/11 06:07:35;;;;;;;0.10;0.10;;;;;;;-145.16;100.00;77408.13;645162;218;32378;-74
2022/09/11 06:13:17;;;;;;;0.20;0.20;;;;;;;-145.16;100.00;77347.73;653668;217;43071;-74
2022/09/11 06:18:58;;;;;;;0.20;0.20;;;;;;;-145.16;100.00;77271.22;653670;217;32361;-72
2022/09/11 06:24:42;;;;;;;0.28;0.28;;;;;;;-145.16;100.00;77118.20;653637;218;32686;-75
2022/09/11 06:30:24;;;;;;;0.20;0.20;;;;;;;-145.16;100.00;77072.91;645165;217;32451;-72
2022/09/11 06:36:05;;;;;;;0.20;0.20;;;;;;;-145.16;100.00;76940.03;645170;216;32373;-72
2022/09/11 06:41:46;;;;;;;0.30;0.30;;;;;;;-145.16;100.00;76801.13;645191;217;32463;-73
2022/09/11 06:47:30;;;;;;;0.40;0.40;;;;;;;-145.16;100.00;76631.02;644992;217;32386;-73
2022/09/11 06:53:11;;;;;;;0.50;0.50;;;;;;;-145.16;100.00;76609.88;641670;217;32474;-73
2022/09/11 06:58:52;;;;;;;0.40;0.40;;;;;;;-145.16;100.00;76565.60;653662;217;32359;-73
2022/09/11 07:04:34;;;;;;;0.40;0.40;;;;;;;-145.16;100.00;76534.40;646636;218;32340;-73
2022/09/11 07:10:15;;;;;;;0.55;0.55;;;;;;;-145.16;100.00;76516.28;641002;217;32567;-73
2022/09/11 07:15:56;;;;;;;0.60;0.60;;;;;;;-145.16;100.00;76493.13;645150;217;32362;-73
2022/09/11 07:21:40;;;;;;;0.95;0.95;;;;;;;-145.16;100.00;76638.06;645042;217;32670;-73
2022/09/11 07:27:21;;;;;;;1.00;1.00;;;;;;;-145.16;100.00;76582.71;653671;217;32367;-73
2022/09/11 07:33:02;;;;;;;0.50;0.50;;;;;;;-145.16;100.00;76473.00;653679;217;32376;-73
2022/09/11 07:38:45;;;;;;;0.90;0.90;;;;;;;-145.16;100.00;76653.16;645159;217;32432;-73
2022/09/11 07:44:26;;;;;;;1.73;1.67;;;;;;;-145.16;100.00;76706.52;644767;217;32371;-72
2022/09/11 07:50:08;;;;;;;1.00;1.00;;;;;;;-145.16;100.00;76623.98;646206;218;32466;-73
2022/09/11 07:55:49;;;;;;;1.75;1.65;;;;;;;-145.16;100.00;76769.92;653663;217;32321;-73
2022/09/11 08:01:32;;;;;;;0.60;0.60;;;;;;;-145.16;100.00;76445.83;641927;216;32491;-73
2022/09/11 08:07:12;;;;;;;0.60;0.60;;;;;;;-145.16;99.64;76395.51;645127;217;32753;-73
2022/09/11 08:12:54;;;;;;;3.60;2.10;;;;;;;-145.16;100.00;76617.94;644897;216;32416;-72
2022/09/11 08:18:36;;;;;;;1.20;1.20;;;;;;;-145.16;100.00;76477.03;645163;217;43130;-73
2022/09/11 08:24:16;;;;;;;2.37;2.10;;;;;;;-145.16;100.00;76553.52;635885;217;32448;-72
2022/09/11 08:29:58;;;;;;;1.67;1.58;;;;;;;-145.16;100.00;76740.73;653662;217;32394;-72
2022/09/11 08:35:39;;;;;;;0.80;0.70;;;;;;;-145.16;100.00;76671.28;653647;217;32394;-73
2022/09/11 08:41:21;;;;;;;0.50;0.50;;;;;;;-145.16;100.00;76503.20;645166;217;43090;-74
2022/09/11 08:47:02;;;;;;;8.13;1.70;;;;;;;-145.16;100.00;76548.48;645163;217;43147;-73
2022/09/11 08:52:44;;;;;;;0.50;0.50;;;;;;;-145.16;100.00;76424.70;645204;217;32355;-74
2022/09/11 08:58:26;;;;;;;0.80;0.75;;;;;;;-145.16;100.00;76487.09;645171;217;43047;-73
2022/09/11 09:04:08;;;;;;;1.25;1.25;;;;;;;-145.16;100.00;76436.77;645164;217;32365;-73
2022/09/11 09:10:03;;;;;;;0.90;0.90;;;;;;;-145.16;100.00;76434.77;645029;218;32321;-73
2022/09/11 09:15:47;;;;;;;0.60;0.60;;;;;;;-145.16;100.00;76869.57;645019;216;32372;-73
2022/09/11 09:21:30;;;;;;;0.68;0.68;;;;;;;-145.16;100.00;76948.08;645186;218;43015;-74
2022/09/11 09:27:10;;;;;;;0.50;0.50;;;;;;;-145.16;100.00;76796.09;645173;217;32363;-73
2022/09/11 09:32:51;;;;;;;0.62;0.62;;;;;;;-145.16;100.00;76538.42;645169;217;32355;-73
2022/09/11 09:38:35;;;;;;;0.77;0.77;;;;;;;-145.16;100.00;76440.80;645045;216;32377;-73
2022/09/11 09:44:22;;;;;;;1.08;1.05;;;;;;;-145.16;100.00;76639.08;645037;217;32361;-72
2022/09/11 09:50:03;;;;;;;0.70;0.70;;;;;;;-145.16;83.55;76062.39;645160;217;43339;-74
2022/09/11 09:55:46;;;;;;;0.70;0.70;;;;;;;-145.16;74.08;75829.94;645039;217;32333;-73
2022/09/11 10:01:30;;;;;;;0.82;0.82;;;;;;;-145.16;67.43;75921.52;645174;217;32664;-72
2022/09/11 10:07:17;;;;;;;0.65;0.65;;;;;;;-145.16;66.36;75928.55;645166;217;32400;-73
2022/09/11 10:12:59;;;;;;;0.60;0.60;;;;;;;-145.16;75.99;75931.58;653658;217;32381;-73
2022/09/11 10:18:42;;;;;;;0.60;0.60;;;;;;;-145.16;88.60;76512.26;645171;217;32358;-73
2022/09/11 10:24:41;;;;;;;0.40;0.40;;;;;;;-145.16;100.00;76778.98;653665;217;32482;-73
2022/09/11 10:30:22;;;;;;;1.15;1.15;;;;;;;-145.16;100.00;76673.30;653696;217;32353;-73
2022/09/11 10:36:04;;;;;;;0.85;0.85;;;;;;;-145.16;100.00;76547.48;645165;217;32364;-73
2022/09/11 10:41:46;;;;;;;0.60;0.60;;;;;;;-145.16;93.55;76416.64;653663;217;32375;-73
2022/09/11 10:47:27;;;;;;;0.50;0.50;;;;;;;-145.16;95.95;76502.19;645169;217;32352;-72
2022/09/11 10:53:26;;;;;;;1.40;1.30;;;;;;;-145.16;90.26;76506.22;645012;217;32329;-72
2022/09/11 10:59:08;;;;;;;0.60;0.60;;;;;;;-145.16;77.01;76171.08;645174;217;32382;-73
2022/09/11 11:04:50;;;;;;;1.45;1.45;;;;;;;-145.16;85.90;76375.38;645166;217;32380;-74
2022/09/11 11:10:35;;;;;;;0.50;0.50;;;;;;;-145.16;91.51;76543.45;645175;217;32363;-72
2022/09/11 11:16:19;;;;;;;0.62;0.62;;;;;;;-145.16;83.86;76617.94;653699;217;32334;-72
2022/09/11 11:22:08;;;;;;;0.60;0.60;;;;;;;-145.16;83.30;76656.19;653678;217;32314;-72
2022/09/11 11:27:54;;;;;;;0.50;0.50;;;;;;;-145.16;92.31;76571.64;645008;217;32356;-72
2022/09/11 11:33:36;;;;;;;0.70;0.70;;;;;;;-145.16;84.70;76563.59;645187;217;32371;-72
2022/09/11 11:39:17;;;;;;;0.50;0.50;;;;;;;-145.16;77.44;76470.99;645176;218;32328;-72
2022/09/11 11:44:59;;;;;;;0.68;0.68;;;;;;;-145.16;73.42;76401.55;645188;217;32329;-73
2022/09/11 11:50:40;;;;;;;0.65;0.65;;;;;;;-145.16;82.75;76643.09;645170;217;43051;-72
2022/09/11 11:56:22;;;;;;;0.60;0.60;;;;;;;-145.16;81.30;76775.96;645176;217;43051;-72
2022/09/11 12:02:03;;;;;;;0.70;0.70;;;;;;;-145.16;94.43;76869.57;645157;217;32373;-72
2022/09/11 12:07:49;;;;;;;0.50;0.50;;;;;;;-145.16;91.65;76821.25;645043;217;32360;-73
2022/09/11 12:13:33;;;;;;;0.40;0.40;;;;;;;-145.16;88.68;76836.36;653685;217;32353;-72
2022/09/11 12:19:15;;;;;;;0.50;0.50;;;;;;;-145.16;93.91;76889.70;645164;216;32369;-74
2022/09/11 12:24:59;;;;;;;0.70;0.70;;;;;;;-145.16;99.10;76846.42;653646;217;32372;-74
2022/09/11 12:31:05;;;;;;;0.57;0.57;;;;;;;-145.16;100.00;76853.47;645019;217;32310;-72
2022/09/11 12:37:14;;;;;;;0.70;0.70;;;;;;;-145.16;100.00;76880.64;653659;217;32347;-72
2022/09/11 12:42:58;;;;;;;0.47;0.47;;;;;;;-145.16;100.00;76852.46;645197;217;32313;-71
2022/09/11 12:48:44;;;;;;;0.50;0.50;;;;;;;-145.16;100.00;76911.84;653689;217;32400;-74
2022/09/11 12:54:30;;;;;;;0.45;0.45;;;;;;;-145.16;100.00;76868.56;645140;217;32399;-71
2022/09/11 13:00:12;;;;;;;0.50;0.50;;;;;;;-145.16;100.00;76822.27;645169;217;32356;-73
2022/09/11 13:05:54;;;;;;;0.40;0.40;;;;;;;-145.16;100.00;76801.13;645189;217;32310;-71
2022/09/11 13:11:35;;;;;;;0.65;0.65;;;;;;;-145.16;100.00;76824.27;645182;217;32355;-71
2022/09/11 13:17:22;;;;;;;0.50;0.50;;;;;;;-145.16;100.00;76767.91;645175;217;32687;-70
2022/09/11 13:23:01;;;;;;;0.37;0.37;;;;;;;-145.16;100.00;76762.88;645005;218;32374;-71
2022/09/11 13:28:42;;;;;;;0.43;0.43;;;;;;;-145.16;100.00;76830.31;645160;217;32378;-70
2022/09/11 13:34:27;;;;;;;0.55;0.55;;;;;;;-145.16;100.00;76843.40;653679;217;32331;-73
2022/09/11 13:40:10;;;;;;;4.40;1.60;;;;;;;-145.16;100.00;76938.02;645050;218;32379;-73
2022/09/11 13:45:54;;;;;;;0.50;0.50;;;;;;;-145.16;100.00;76832.33;645005;217;32389;-71
2022/09/11 13:51:35;;;;;;;0.47;0.47;;;;;;;-145.16;100.00;76841.39;645152;218;32415;-72
2022/09/11 13:57:20;;;;;;;0.40;0.40;;;;;;;-145.16;100.00;76826.29;645034;217;32317;-71
2022/09/11 14:03:02;;;;;;;0.30;0.30;;;;;;;-145.16;100.00;76769.92;645164;217;32317;-71
2022/09/11 14:08:45;;;;;;;0.85;0.85;;;;;;;-145.16;100.00;76885.67;645159;218;32346;-70
2022/09/11 14:14:24;;;;;;;0.40;0.40;;;;;;;-145.16;100.00;76820.25;645162;217;32401;-71
2022/09/11 14:20:08;;;;;;;1.00;1.00;;;;;;;-145.16;100.00;76855.48;645194;217;32311;-72
2022/09/11 14:25:49;;;;;;;0.40;0.40;;;;;;;-145.16;97.62;76724.63;645156;217;32366;-71
2022/09/11 14:31:47;;;;;;;0.50;0.50;;;;;;;-145.16;96.71;76732.68;653686;217;32359;-73
2022/09/11 14:37:30;;;;;;;0.40;0.40;;;;;;;-145.16;96.33;76726.64;653682;217;32334;-72
2022/09/11 14:43:12;;;;;;;0.40;0.40;;;;;;;-145.16;100.00;76826.29;645163;217;32318;-71
2022/09/11 14:48:52;;;;;;;0.47;0.47;;;;;;;-145.16;100.00;76834.34;653671;217;32392;-70
2022/09/11 14:54:33;;;;;;;0.30;0.30;;;;;;;-145.16;99.35;76837.36;645155;217;32367;-72
2022/09/11 15:00:15;;;;;;;0.40;0.40;;;;;;;-145.16;100.00;76884.67;645166;217;32457;-70
2022/09/11 15:05:56;;;;;;;0.40;0.40;;;;;;;-145.16;100.00;76969.22;645160;217;32650;-73
2022/09/11 15:11:38;;;;;;;0.30;0.30;;;;;;;-145.16;99.51;76857.49;653681;216;32632;-70
2022/09/11 15:17:19;;;;;;;0.70;0.70;;;;;;;-145.16;100.00;76918.89;645185;218;32383;-70
2022/09/11 15:23:00;;;;;;;0.93;0.93;;;;;;;-145.16;100.00;76992.38;645176;217;32392;-73
2022/09/11 15:28:42;;;;;;;0.40;0.40;;;;;;;-145.16;100.00;76975.27;645157;217;32380;-70
2022/09/11 15:34:24;;;;;;;0.35;0.35;;;;;;;-145.16;100.00;76925.94;653685;217;32635;-70
2022/09/11 15:40:05;;;;;;;0.30;0.30;;;;;;;-145.16;100.00;76975.27;645138;217;32415;-72
2022/09/11 15:45:46;;;;;;;0.40;0.40;;;;;;;-145.16;100.00;76957.14;645146;217;32369;-70
2022/09/11 15:51:27;;;;;;;0.35;0.35;;;;;;;-145.16;100.00;76981.30;644695;217;32326;-72
2022/09/11 15:57:12;;;;;;;0.37;0.37;;;;;;;-145.16;100.00;76967.20;645002;217;43353;-73
2022/09/11 16:02:55;;;;;;;0.90;0.70;;;;;;;-145.16;100.00;76989.36;644645;217;43146;-70
2022/09/11 16:08:38;;;;;;;0.75;0.75;;;;;;;-145.16;100.00;76956.14;640899;216;43173;-70
2022/09/11 16:14:18;;;;;;;0.40;0.40;;;;;;;-145.16;100.00;76982.31;645163;217;32350;-69
2022/09/11 16:19:59;;;;;;;0.80;0.80;;;;;;;-145.16;100.00;77001.44;645137;217;43066;-69
2022/09/11 16:25:41;;;;;;;0.60;0.60;;;;;;;-145.16;100.00;76990.36;645158;217;43431;-70
2022/09/11 16:31:22;;;;;;;0.90;0.90;;;;;;;-145.16;100.00;77020.56;645192;217;32363;-69
2022/09/11 16:37:04;;;;;;;0.40;0.40;;;;;;;-145.16;100.00;77013.52;653676;217;43050;-70
2022/09/11 16:42:45;;;;;;;0.35;0.35;;;;;;;-145.16;100.00;77044.72;645181;217;32676;-72
2022/09/11 16:48:26;;;;;;;0.50;0.50;;;;;;;-145.16;100.00;77047.73;645181;216;32372;-71
2022/09/11 16:54:10;;;;;;;0.65;0.65;;;;;;;-145.16;100.00;77095.05;653649;217;32376;-69
2022/09/11 16:59:51;;;;;;;0.30;0.30;;;;;;;-145.16;100.00;77112.16;645160;217;32361;-72
2022/09/11 17:05:32;;;;;;;0.25;0.25;;;;;;;-145.16;100.00;77122.23;645195;217;43126;-72
2022/09/11 17:11:14;;;;;;;0.30;0.30;;;;;;;-145.16;100.00;77152.43;645186;217;43124;-71
2022/09/11 17:16:57;;;;;;;0.30;0.30;;;;;;;-145.16;100.00;77191.69;645079;217;32392;-72
2022/09/11 17:22:38;;;;;;;0.30;0.30;;;;;;;-145.16;100.00;77207.80;645155;217;32409;-72
2022/09/11 17:28:19;;;;;;;0.30;0.30;;;;;;;-145.16;100.00;77249.07;653694;217;32315;-72
2022/09/11 17:34:01;;;;;;;0.35;0.35;;;;;;;-145.16;100.00;77259.14;645178;217;32364;-72
2022/09/11 17:39:42;;;;;;;0.30;0.30;;;;;;;-145.16;100.00;77301.42;645170;217;32333;-72
2022/09/11 17:45:26;;;;;;;0.22;0.22;;;;;;;-145.16;100.00;77339.67;653218;217;32462;-72
2022/09/11 17:51:08;;;;;;;0.30;0.30;;;;;;;-145.16;100.00;77335.64;645182;218;32381;-72
2022/09/11 17:56:49;;;;;;;0.40;0.40;;;;;;;-145.16;100.00;77381.95;645115;217;32650;-72
2022/09/11 18:02:31;;;;;;;0.20;0.20;;;;;;;-145.16;100.00;77402.09;645009;218;32359;-71
2022/09/11 18:08:14;;;;;;;0.50;0.50;;;;;;;-145.16;100.00;77431.28;653644;217;32376;-71
2022/09/11 18:14:03;;;;;;;0.20;0.20;;;;;;;-145.16;100.00;77451.42;645183;217;32323;-72
2022/09/11 18:19:45;;;;;;;0.30;0.30;;;;;;;-145.16;100.00;77450.41;653677;217;32394;-72
2022/09/11 18:25:25;;;;;;;0.20;0.20;;;;;;;-145.16;100.00;77466.52;645178;218;32382;-72
2022/09/11 18:31:07;;;;;;;0.30;0.30;;;;;;;-145.16;100.00;77499.74;645166;217;32405;-71
2022/09/11 18:36:48;;;;;;;0.20;0.20;;;;;;;-145.16;100.00;77512.83;645205;217;32393;-71
2022/09/11 18:42:31;;;;;;;0.28;0.28;;;;;;;-145.16;100.00;77548.06;644865;217;32351;-72
2022/09/11 18:48:12;;;;;;;0.20;0.20;;;;;;;-145.16;100.00;77564.17;645154;217;32363;-72
2022/09/11 18:53:54;;;;;;;0.65;0.65;;;;;;;-145.16;100.00;77606.46;645122;218;43106;-72
2022/09/11 18:59:35;;;;;;;0.17;0.17;;;;;;;-145.16;100.00;77605.45;645196;217;43158;-71
2022/09/11 19:05:17;;;;;;;0.30;0.30;;;;;;;-145.16;100.00;77603.44;645168;217;43109;-71
2022/09/11 19:10:58;;;;;;;0.20;0.20;;;;;;;-145.16;100.00;77632.64;645189;217;32369;-71
2022/09/11 19:16:41;;;;;;;0.30;0.30;;;;;;;-145.16;100.00;77659.82;645025;218;43147;-71
2022/09/11 19:22:23;;;;;;;0.20;0.20;;;;;;;-145.16;100.00;77668.88;645163;218;32314;-71
2022/09/11 19:28:04;;;;;;;0.80;0.80;;;;;;;-145.16;100.00;77656.80;640926;217;34441;-71
2022/09/11 19:33:45;;;;;;;0.20;0.20;;;;;;;-145.16;100.00;77692.04;643630;217;32351;-71
2022/09/11 19:39:27;;;;;;;0.20;0.20;;;;;;;-145.16;100.00;77714.19;645157;217;32399;-71
2022/09/11 19:45:08;;;;;;;0.30;0.30;;;;;;;-145.16;100.00;77738.35;645157;217;32435;-71
2022/09/11 19:50:52;;;;;;;0.20;0.20;;;;;;;-145.16;100.00;77740.37;644999;217;32362;-71
2022/09/11 19:56:33;;;;;;;0.30;0.30;;;;;;;-145.16;100.00;77717.20;653680;217;32408;-71
2022/09/11 20:02:15;;;;;;;0.20;0.20;;;;;;;-145.16;100.00;77692.04;644531;217;32491;-71
2022/09/11 20:07:56;;;;;;;0.20;0.20;;;;;;;-145.16;100.00;77737.34;643281;217;32566;-71
2022/09/11 20:13:38;;;;;;;0.20;0.20;;;;;;;-145.16;100.00;77792.72;643573;217;43203;-71
2022/09/11 20:19:19;;;;;;;0.10;0.10;;;;;;;-145.16;100.00;77793.73;645176;216;32376;-71
2022/09/11 20:25:00;;;;;;;0.20;0.20;;;;;;;-145.16;100.00;77796.75;653691;217;43017;-71
2022/09/11 20:30:42;;;;;;;0.30;0.30;;;;;;;-145.16;100.00;77780.64;645183;217;32359;-71
2022/09/11 20:36:26;;;;;;;0.50;0.50;;;;;;;-145.16;100.00;77777.62;645255;218;34290;-72
2022/09/11 20:42:06;;;;;;;0.10;0.10;;;;;;;-145.16;100.00;77781.64;645174;217;32370;-71
2022/09/11 20:47:48;;;;;;;0.10;0.10;;;;;;;-145.16;100.00;77806.81;653684;217;32420;-72
2022/09/11 20:53:29;;;;;;;0.20;0.20;;;;;;;-145.16;100.00;77813.86;653691;217;32357;-71
2022/09/11 20:59:16;;;;;;;0.20;0.20;;;;;;;-145.16;100.00;77795.74;645051;217;32325;-71
2022/09/11 21:04:57;;;;;;;0.10;0.10;;;;;;;-145.16;100.00;77792.72;653694;217;32378;-72
2022/09/11 21:10:39;;;;;;;0.10;0.10;;;;;;;-145.16;100.00;77773.59;645168;216;32447;-72
2022/09/11 21:16:20;;;;;;;0.20;0.20;;;;;;;-145.16;100.00;77775.61;653699;217;32352;-71
2022/09/11 21:22:01;;;;;;;0.22;0.22;;;;;;;-145.16;100.00;77799.77;645173;217;43116;-72
2022/09/11 21:27:43;;;;;;;0.20;0.20;;;;;;;-145.16;100.00;77802.79;645180;218;43124;-71
2022/09/11 21:33:25;;;;;;;0.20;0.20;;;;;;;-145.16;100.00;77786.68;645192;217;32367;-71
2022/09/11 21:39:06;;;;;;;0.20;0.20;;;;;;;-145.16;100.00;77811.85;645175;217;32383;-71
2022/09/11 21:44:47;;;;;;;0.20;0.20;;;;;;;-145.16;100.00;77819.91;653682;217;32632;-71
2022/09/11 21:50:28;;;;;;;0.40;0.40;;;;;;;-145.16;100.00;77816.89;645171;218;43064;-72
2022/09/11 21:56:10;;;;;;;0.17;0.17;;;;;;;-145.16;100.00;77811.85;645184;217;32363;-72
2022/09/11 22:01:52;;;;;;;0.17;0.17;;;;;;;-145.16;100.00;77815.88;653669;216;32402;-72
2022/09/11 22:07:35;;;;;;;0.27;0.27;;;;;;;-145.16;100.00;77816.89;645047;217;34339;-72
2022/09/11 22:13:17;;;;;;;3.83;3.55;;;;;;;-145.16;100.00;77803.80;645162;217;32330;-72
2022/09/11 22:18:58;;;;;;;0.10;0.10;;;;;;;-145.16;100.00;77816.89;653708;217;32358;-71
2022/09/11 22:24:39;;;;;;;0.30;0.30;;;;;;;-145.16;100.00;77852.13;645183;217;32383;-72
2022/09/11 22:30:22;;;;;;;0.20;0.20;;;;;;;-145.16;100.00;77856.16;645196;217;33613;-71
2022/09/11 22:36:02;;;;;;;0.10;0.10;;;;;;;-145.16;100.00;77877.30;653697;217;32370;-72
2022/09/11 22:41:44;;;;;;;0.20;0.20;;;;;;;-145.16;100.00;77877.30;653686;218;32370;-71
2022/09/11 22:47:27;;;;;;;0.20;0.20;;;;;;;-145.16;100.00;77896.43;653657;217;32355;-72
2022/09/11 22:53:11;;;;;;;0.10;0.10;;;;;;;-145.16;100.00;77867.23;645039;217;43115;-72
2022/09/11 22:58:56;;;;;;;0.50;0.50;;;;;;;-145.16;100.00;77875.28;645195;217;33287;-71
2022/09/11 23:04:37;;;;;;;0.20;0.20;;;;;;;-145.16;100.00;77871.25;645183;217;32354;-72
2022/09/11 23:10:22;;;;;;;0.13;0.13;;;;;;;-145.16;100.00;77886.36;645064;217;32429;-72
2022/09/11 23:16:06;;;;;;;0.10;0.10;;;;;;;-145.16;100.00;77894.41;645041;217;53779;-71
2022/09/11 23:21:45;;;;;;;0.65;0.65;;;;;;;-145.16;100.00;77897.44;653685;217;43109;-72
2022/09/11 23:27:26;;;;;;;0.10;0.10;;;;;;;-145.16;100.00;77903.48;645182;217;32656;-71
2022/09/11 23:33:07;;;;;;;0.10;0.10;;;;;;;-145.16;100.00;77877.30;645190;218;32363;-71
2022/09/11 23:38:51;;;;;;;0.10;0.10;;;;;;;-145.16;100.00;77918.58;645168;217;33349;-72
2022/09/11 23:44:31;;;;;;;0.20;0.20;;;;;;;-145.16;100.00;77916.56;653675;218;32361;-71
2022/09/11 23:50:15;;;;;;;0.25;0.25;;;;;;;-145.16;100.00;77914.55;645033;217;32382;-71
2022/09/11 23:55:56;;;;;;;0.10;0.10;;;;;;;-145.16;100.00;77913.55;645196;217;32413;-71
